Time;durP1;ratioP1;P1;durP2;ratioP2;P2;SDS_P1;SDS_P2;PMS_P1;PMS_P2;Temp;Humidity;BMP_temperature;BMP_pressure;BME280_temperature;BME280_humidity;BME280_pressure;Samples;Min_cycle;Max_cycle;Signal;HPM_P1;HPM_P2
2023/01/10 00:01:42;;;;;;;18.08;3.92;;;5.70;99.90;;;;;;7372280;19;20011;-55
2023/01/10 00:04:09;;;;;;;13.65;3.80;;;5.60;99.90;;;;;;7381264;19;20081;-54
2023/01/10 00:06:35;;;;;;;18.88;3.45;;;5.60;99.90;;;;;;7381993;19;20029;-55
2023/01/10 00:09:01;;;;;;;16.08;3.10;;;5.50;99.90;;;;;;7383896;19;20081;-55
2023/01/10 00:14:14;;;;;;;22.50;4.78;;;5.40;99.90;;;;;;7370065;19;20026;-57
2023/01/10 00:16:41;;;;;;;13.95;3.22;;;5.30;99.90;;;;;;7364448;19;20477;-58
2023/01/10 00:19:09;;;;;;;18.83;4.00;;;5.30;99.90;;;;;;7369820;19;20503;-53
2023/01/10 00:21:36;;;;;;;11.10;2.97;;;5.30;99.90;;;;;;7382772;19;20018;-55
2023/01/10 00:24:16;;;;;;;15.57;3.83;;;5.30;99.90;;;;;;7379649;19;20015;-57
2023/01/10 00:26:49;;;;;;;15.48;3.45;;;5.20;99.90;;;;;;7362796;19;20018;-57
2023/01/10 00:29:21;;;;;;;17.33;2.92;;;5.20;99.90;;;;;;7361654;19;20018;-57
2023/01/10 00:31:47;;;;;;;15.15;3.70;;;5.10;99.90;;;;;;7366527;19;20389;-57
2023/01/10 00:34:17;;;;;;;21.92;3.70;;;5.10;99.90;;;;;;7361668;19;20021;-58
2023/01/10 00:36:44;;;;;;;14.85;4.15;;;5.10;99.90;;;;;;7369899;19;20374;-57
2023/01/10 00:39:18;;;;;;;15.60;4.03;;;5.10;99.90;;;;;;7368628;19;20023;-57
2023/01/10 00:44:29;;;;;;;21.15;5.53;;;5.30;99.90;;;;;;7390678;19;20119;-55
2023/01/10 00:46:56;;;;;;;23.63;5.32;;;5.40;99.90;;;;;;7369701;19;20481;-58
2023/01/10 00:49:22;;;;;;;19.13;4.88;;;5.50;99.90;;;;;;7366773;19;20509;-57
2023/01/10 00:51:49;;;;;;;19.33;4.82;;;5.60;99.90;;;;;;7381436;19;20025;-57
2023/01/10 00:54:15;;;;;;;20.27;4.18;;;5.70;99.90;;;;;;7370309;19;20452;-55
2023/01/10 00:56:41;;;;;;;21.63;4.15;;;5.70;99.90;;;;;;7392910;19;20018;-56
2023/01/10 00:59:08;;;;;;;23.60;5.90;;;5.80;99.90;;;;;;7389144;19;20011;-55
2023/01/10 01:01:34;;;;;;;18.23;4.35;;;5.80;99.90;;;;;;7378278;19;20015;-57
2023/01/10 01:04:01;;;;;;;19.17;4.22;;;5.90;99.90;;;;;;7364927;19;20015;-57
2023/01/10 01:06:27;;;;;;;17.23;4.35;;;5.90;99.90;;;;;;7368423;19;20359;-58
2023/01/10 01:08:55;;;;;;;26.40;4.43;;;6.00;99.90;;;;;;7382722;19;20106;-57
2023/01/10 01:11:21;;;;;;;20.85;5.07;;;6.00;99.90;;;;;;7385251;19;20010;-55
2023/01/10 01:13:48;;;;;;;25.73;4.57;;;6.00;99.90;;;;;;7390000;19;20018;-56
2023/01/10 01:16:14;;;;;;;22.08;4.15;;;6.00;99.90;;;;;;7387943;19;20378;-56
2023/01/10 01:18:41;;;;;;;22.73;4.55;;;6.10;99.90;;;;;;7376671;19;20365;-57
2023/01/10 01:21:08;;;;;;;18.92;4.45;;;6.00;99.90;;;;;;7365594;19;20045;-57
2023/01/10 01:23:35;;;;;;;20.52;5.05;;;6.10;99.90;;;;;;7368569;19;20729;-57
2023/01/10 01:26:01;;;;;;;16.90;3.97;;;6.10;99.90;;;;;;7364105;19;20010;-57
2023/01/10 01:28:28;;;;;;;23.67;4.57;;;6.10;99.90;;;;;;7384123;19;20018;-56
2023/01/10 01:30:54;;;;;;;20.17;4.63;;;6.10;99.90;;;;;;7387266;19;20022;-55
2023/01/10 01:33:20;;;;;;;18.23;3.90;;;6.10;99.90;;;;;;7385494;19;20491;-56
2023/01/10 01:35:48;;;;;;;26.17;4.78;;;6.10;99.90;;;;;;7377858;19;20631;-57
2023/01/10 01:38:16;;;;;;;18.10;3.67;;;6.20;99.90;;;;;;7367571;19;20023;-58
2023/01/10 01:40:43;;;;;;;16.55;3.28;;;6.20;99.90;;;;;;7379005;19;20011;-55
2023/01/10 01:43:30;;;;;;;13.25;3.85;;;6.20;99.90;;;;;;7381309;19;20094;-56
2023/01/10 01:46:02;;;;;;;18.52;3.92;;;6.10;99.90;;;;;;7386148;19;20006;-56
2023/01/10 01:48:41;;;;;;;19.35;4.32;;;6.10;99.90;;;;;;7375189;19;20448;-57
2023/01/10 01:51:16;;;;;;;20.23;4.15;;;5.90;99.90;;;;;;7367487;19;20023;-57
2023/01/10 01:53:49;;;;;;;14.10;3.47;;;5.80;99.90;;;;;;7375006;19;20027;-57
2023/01/10 01:56:29;;;;;;;17.80;4.32;;;5.80;99.90;;;;;;7374735;19;20038;-56
2023/01/10 01:59:15;;;;;;;14.88;3.28;;;5.80;99.90;;;;;;7385771;19;20029;-54
2023/01/10 02:01:47;;;;;;;19.63;3.95;;;5.70;99.90;;;;;;7384617;19;20018;-57
2023/01/10 02:04:21;;;;;;;21.85;4.47;;;5.70;99.90;;;;;;7359849;19;20022;-58
2023/01/10 02:06:51;;;;;;;17.70;3.92;;;5.70;99.90;;;;;;7379296;19;20018;-55
2023/01/10 02:09:52;;;;;;;15.30;3.53;;;5.60;99.90;;;;;;7384982;19;20748;-56
2023/01/10 02:12:19;;;;;;;21.35;3.88;;;5.60;99.90;;;;;;7381612;19;20011;-57
2023/01/10 02:14:49;;;;;;;16.98;4.85;;;5.60;99.90;;;;;;7364775;19;20019;-57
2023/01/10 02:17:16;;;;;;;21.53;3.73;;;5.60;99.90;;;;;;7366983;19;20327;-58
2023/01/10 02:19:56;;;;;;;24.45;4.78;;;5.60;99.90;;;;;;7374589;19;20287;-55
2023/01/10 02:22:53;;;;;;;15.63;3.35;;;5.50;99.90;;;;;;7374095;19;20054;-57
2023/01/10 02:25:22;;;;;;;15.60;3.40;;;5.50;99.90;;;;;;7382775;19;20049;-56
2023/01/10 02:28:13;;;;;;;15.82;4.25;;;5.60;99.90;;;;;;7384476;19;20014;-56
2023/01/10 02:30:46;;;;;;;20.05;4.03;;;5.60;99.90;;;;;;7385181;19;20519;-55
2023/01/10 02:33:37;;;;;;;24.88;4.10;;;5.60;99.90;;;;;;7384226;19;20081;-55
2023/01/10 02:36:32;;;;;;;17.88;3.60;;;5.50;99.90;;;;;;7370740;19;20026;-56
2023/01/10 02:39:12;;;;;;;19.25;4.60;;;5.40;99.90;;;;;;7374647;19;20018;-55
2023/01/10 02:41:49;;;;;;;17.95;3.60;;;5.30;99.90;;;;;;7382874;19;20446;-56
2023/01/10 02:44:35;;;;;;;18.27;4.28;;;5.30;99.90;;;;;;7385621;19;20018;-55
2023/01/10 02:47:07;;;;;;;19.92;4.25;;;5.20;99.90;;;;;;7384940;19;20018;-55
2023/01/10 02:49:48;;;;;;;18.20;3.83;;;5.20;99.90;;;;;;7383381;19;20026;-55
2023/01/10 02:52:25;;;;;;;17.88;4.25;;;5.10;99.90;;;;;;7384163;19;20044;-56
2023/01/10 02:54:57;;;;;;;16.30;4.03;;;5.10;99.90;;;;;;7383399;19;20007;-55
2023/01/10 02:58:14;;;;;;;16.83;4.38;;;5.20;99.90;;;;;;7385263;19;20561;-56
2023/01/10 03:00:44;;;;;;;17.77;4.22;;;5.20;99.90;;;;;;7383069;19;20022;-56
2023/01/10 03:03:32;;;;;;;20.42;4.20;;;5.30;99.90;;;;;;7381308;19;20026;-56
2023/01/10 03:06:29;;;;;;;20.65;4.85;;;5.40;99.90;;;;;;7383927;19;20456;-55
2023/01/10 03:09:05;;;;;;;22.08;4.50;;;5.50;99.90;;;;;;7381493;19;20014;-56
2023/01/10 03:11:42;;;;;;;19.95;5.00;;;5.60;99.90;;;;;;7384210;19;20022;-55
2023/01/10 03:14:20;;;;;;;22.08;5.53;;;5.60;99.90;;;;;;7382599;19;20036;-55
2023/01/10 03:16:52;;;;;;;27.10;5.55;;;5.60;99.90;;;;;;7382144;19;20081;-54
2023/01/10 03:19:23;;;;;;;21.95;4.03;;;5.60;99.90;;;;;;7378909;19;20042;-55
2023/01/10 03:21:55;;;;;;;19.40;5.07;;;5.70;99.90;;;;;;7381142;19;20109;-55
2023/01/10 03:24:35;;;;;;;21.63;4.68;;;5.80;99.90;;;;;;7377367;19;20030;-56
2023/01/10 03:27:30;;;;;;;14.30;3.88;;;5.80;99.90;;;;;;7382444;19;20018;-54
2023/01/10 03:30:13;;;;;;;24.73;4.32;;;5.90;99.90;;;;;;7378663;19;20037;-54
2023/01/10 03:32:41;;;;;;;17.63;4.00;;;5.90;99.90;;;;;;7370508;19;20019;-57
2023/01/10 03:35:09;;;;;;;21.67;4.00;;;5.90;99.90;;;;;;7379649;19;20034;-54
2023/01/10 03:37:56;;;;;;;19.88;4.40;;;5.80;99.90;;;;;;7380589;19;20829;-57
2023/01/10 03:40:44;;;;;;;22.50;4.25;;;5.80;99.90;;;;;;7367236;19;20542;-55
2023/01/10 03:46:48;;;;;;;23.25;4.32;;;5.70;99.90;;;;;;7364817;19;20015;-57
2023/01/10 03:49:17;;;;;;;21.58;5.25;;;5.60;99.90;;;;;;7362038;19;20019;-57
2023/01/10 03:51:43;;;;;;;18.58;4.90;;;5.50;99.90;;;;;;7366191;19;20022;-57
2023/01/10 03:54:14;;;;;;;18.55;4.70;;;5.60;99.90;;;;;;7364218;19;20468;-57
2023/01/10 03:56:50;;;;;;;19.50;4.72;;;5.60;99.90;;;;;;7367262;19;20094;-58
2023/01/10 03:59:19;;;;;;;22.73;4.85;;;5.70;99.90;;;;;;7364858;19;20445;-55
2023/01/10 04:01:46;;;;;;;22.70;4.95;;;5.70;99.90;;;;;;7381515;19;20019;-54
2023/01/10 04:04:15;;;;;;;20.10;4.78;;;5.80;99.90;;;;;;7380844;19;20026;-54
2023/01/10 04:06:41;;;;;;;29.27;5.70;;;5.90;99.90;;;;;;7370586;19;20010;-57
2023/01/10 04:09:08;;;;;;;22.55;5.63;;;5.90;99.90;;;;;;7360928;19;20019;-57
2023/01/10 04:11:34;;;;;;;21.60;5.18;;;5.90;99.90;;;;;;7369951;19;20607;-57
2023/01/10 04:14:00;;;;;;;18.70;4.57;;;6.00;99.90;;;;;;7369619;19;20054;-57
2023/01/10 04:16:27;;;;;;;21.23;5.55;;;6.00;99.90;;;;;;7382839;19;20371;-55
2023/01/10 04:18:53;;;;;;;20.65;5.13;;;6.00;99.90;;;;;;7385243;19;20042;-57
2023/01/10 04:21:19;;;;;;;29.48;5.75;;;6.10;99.90;;;;;;7368815;19;20023;-57
2023/01/10 04:23:45;;;;;;;27.13;5.78;;;6.20;99.90;;;;;;7370285;19;20026;-57
2023/01/10 04:26:12;;;;;;;26.27;4.88;;;6.20;99.90;;;;;;7386403;19;20408;-55
2023/01/10 04:28:38;;;;;;;20.70;5.00;;;6.20;99.90;;;;;;7380657;19;20025;-57
2023/01/10 04:31:05;;;;;;;22.40;5.22;;;6.20;99.90;;;;;;7369269;19;20050;-57
2023/01/10 04:33:31;;;;;;;27.45;5.55;;;6.10;99.90;;;;;;7378719;19;20018;-57
2023/01/10 04:35:57;;;;;;;21.83;4.95;;;6.10;99.90;;;;;;7377392;19;20019;-57
2023/01/10 04:38:24;;;;;;;19.20;4.80;;;6.10;99.90;;;;;;7377740;19;20074;-55
2023/01/10 04:40:56;;;;;;;21.30;5.75;;;6.20;99.90;;;;;;7374249;19;20014;-57
2023/01/10 04:43:24;;;;;;;18.58;5.35;;;6.20;99.90;;;;;;7366832;19;20014;-57
2023/01/10 04:45:50;;;;;;;16.88;4.40;;;6.10;99.90;;;;;;7376218;19;20047;-56
2023/01/10 04:48:18;;;;;;;23.33;5.30;;;6.20;99.90;;;;;;7391431;19;20018;-54
2023/01/10 04:50:51;;;;;;;18.63;4.90;;;6.20;99.90;;;;;;7381899;19;20498;-57
2023/01/10 04:53:18;;;;;;;25.58;5.55;;;6.20;99.90;;;;;;7373584;19;20037;-57
2023/01/10 04:55:44;;;;;;;21.38;4.72;;;6.10;99.90;;;;;;7383250;19;20025;-54
2023/01/10 04:58:11;;;;;;;21.65;4.80;;;6.10;99.90;;;;;;7372397;19;20022;-57
2023/01/10 05:00:37;;;;;;;24.55;4.85;;;6.10;99.90;;;;;;7376925;19;20014;-57
2023/01/10 05:03:04;;;;;;;23.40;4.50;;;6.10;99.90;;;;;;7372518;19;20497;-57
2023/01/10 05:05:31;;;;;;;18.20;4.78;;;6.10;99.90;;;;;;7368404;19;20476;-57
2023/01/10 05:07:57;;;;;;;19.20;4.65;;;6.00;99.90;;;;;;7375307;19;20497;-58
2023/01/10 05:10:24;;;;;;;20.65;4.72;;;6.00;99.90;;;;;;7376583;19;20010;-57
2023/01/10 05:12:50;;;;;;;19.80;4.63;;;6.00;99.90;;;;;;7375921;19;20042;-58
2023/01/10 05:15:16;;;;;;;17.30;5.00;;;6.10;99.90;;;;;;7373288;19;20031;-57
2023/01/10 05:17:42;;;;;;;23.80;5.28;;;6.10;99.90;;;;;;7375360;19;20086;-57
2023/01/10 05:20:09;;;;;;;27.05;5.18;;;6.00;99.90;;;;;;7377881;19;20026;-57
2023/01/10 05:22:36;;;;;;;25.42;4.97;;;6.00;99.90;;;;;;7369700;19;20018;-57
2023/01/10 05:25:03;;;;;;;22.40;5.38;;;5.90;99.90;;;;;;7373439;19;20086;-57
2023/01/10 05:27:29;;;;;;;23.70;5.30;;;5.90;99.90;;;;;;7369263;19;20022;-58
2023/01/10 05:29:56;;;;;;;20.35;4.75;;;5.90;99.90;;;;;;7368773;19;20022;-57
2023/01/10 05:32:22;;;;;;;24.70;5.25;;;5.90;99.90;;;;;;7364015;19;20082;-57
2023/01/10 05:34:48;;;;;;;24.55;5.07;;;5.90;99.90;;;;;;7366078;19;20029;-57
2023/01/10 05:37:15;;;;;;;23.38;5.65;;;5.90;99.90;;;;;;7365645;19;20022;-57
2023/01/10 05:39:42;;;;;;;20.98;5.55;;;5.90;99.90;;;;;;7367225;19;20385;-57
2023/01/10 05:42:08;;;;;;;27.23;5.32;;;6.00;99.90;;;;;;7361993;19;20018;-58
2023/01/10 05:44:35;;;;;;;28.00;6.18;;;6.00;99.90;;;;;;7362802;19;20529;-58
2023/01/10 05:47:02;;;;;;;26.35;6.03;;;6.00;99.90;;;;;;7367568;19;20452;-58
2023/01/10 05:49:28;;;;;;;23.52;5.45;;;6.10;99.90;;;;;;7364809;19;20484;-58
2023/01/10 05:51:54;;;;;;;31.83;6.22;;;6.10;99.90;;;;;;7367002;19;20509;-57
2023/01/10 05:54:20;;;;;;;29.95;6.90;;;6.10;99.90;;;;;;7364086;19;20355;-57
2023/01/10 05:56:46;;;;;;;40.63;6.90;;;6.10;99.90;;;;;;7367725;19;20015;-58
2023/01/10 05:59:13;;;;;;;33.00;6.65;;;6.10;99.90;;;;;;7360686;19;20019;-57
2023/01/10 06:01:39;;;;;;;23.55;5.95;;;6.10;99.90;;;;;;7358181;19;20507;-56
2023/01/10 06:04:05;;;;;;;21.63;5.78;;;6.10;99.90;;;;;;7364891;19;20050;-57
2023/01/10 06:06:33;;;;;;;21.65;6.15;;;6.00;99.90;;;;;;7361601;19;20015;-57
2023/01/10 06:08:59;;;;;;;27.92;6.60;;;6.00;99.90;;;;;;7369422;19;20019;-56
2023/01/10 06:11:28;;;;;;;29.17;6.82;;;5.90;99.90;;;;;;7353696;19;20023;-57
2023/01/10 06:13:58;;;;;;;20.15;5.78;;;5.90;99.90;;;;;;7361981;19;20018;-57
2023/01/10 06:16:24;;;;;;;26.73;5.72;;;5.90;99.90;;;;;;7358698;19;20389;-57
2023/01/10 06:18:52;;;;;;;28.50;6.10;;;5.80;99.90;;;;;;7361004;19;20019;-57
2023/01/10 06:21:19;;;;;;;29.38;5.95;;;5.80;99.90;;;;;;7362700;19;20014;-56
2023/01/10 06:23:45;;;;;;;26.75;6.30;;;5.80;99.90;;;;;;7363874;19;20029;-57
2023/01/10 06:26:12;;;;;;;24.58;6.15;;;5.90;99.90;;;;;;7360516;19;21412;-56
2023/01/10 06:28:39;;;;;;;36.85;8.57;;;5.90;99.90;;;;;;7367190;19;20374;-57
2023/01/10 06:31:09;;;;;;;31.65;6.78;;;5.90;99.90;;;;;;7363383;19;20054;-56
2023/01/10 06:33:37;;;;;;;26.17;6.32;;;5.90;99.90;;;;;;7366322;19;20037;-57
2023/01/10 06:36:04;;;;;;;27.73;6.53;;;5.80;99.90;;;;;;7363948;19;20367;-56
2023/01/10 06:38:30;;;;;;;27.42;6.68;;;5.80;99.90;;;;;;7361501;19;20689;-57
2023/01/10 06:40:57;;;;;;;22.60;6.30;;;5.80;99.90;;;;;;7363957;19;20020;-57
2023/01/10 06:43:24;;;;;;;35.20;9.02;;;5.80;99.90;;;;;;7355748;19;20387;-57
2023/01/10 06:45:51;;;;;;;20.15;5.68;;;5.80;99.90;;;;;;7365855;19;20759;-57
2023/01/10 06:48:17;;;;;;;30.63;7.13;;;5.80;99.90;;;;;;7358540;19;20020;-56
2023/01/10 06:50:43;;;;;;;31.42;6.20;;;5.90;99.90;;;;;;7362040;19;20055;-57
2023/01/10 06:53:10;;;;;;;29.90;6.88;;;5.90;99.90;;;;;;7384578;19;20022;-55
2023/01/10 06:55:36;;;;;;;26.02;5.90;;;5.90;99.90;;;;;;7380204;19;20102;-57
2023/01/10 06:58:03;;;;;;;26.27;6.65;;;5.90;99.90;;;;;;7382446;19;20018;-54
2023/01/10 07:00:30;;;;;;;27.77;7.03;;;5.90;99.90;;;;;;7385579;19;20017;-56
2023/01/10 07:03:01;;;;;;;25.83;6.82;;;5.90;99.90;;;;;;7373639;19;20016;-57
2023/01/10 07:05:29;;;;;;;25.58;6.60;;;5.90;99.90;;;;;;7373543;19;20007;-55
2023/01/10 07:07:57;;;;;;;27.40;7.63;;;5.80;99.90;;;;;;7383524;19;20474;-55
2023/01/10 07:10:23;;;;;;;26.63;6.45;;;5.70;99.90;;;;;;7381152;19;20015;-57
2023/01/10 07:12:49;;;;;;;30.30;6.70;;;5.70;99.90;;;;;;7359089;19;20050;-57
2023/01/10 07:15:16;;;;;;;29.60;7.28;;;5.70;99.90;;;;;;7362892;19;20030;-57
2023/01/10 07:17:43;;;;;;;26.73;7.22;;;5.70;99.90;;;;;;7359579;19;20027;-57
2023/01/10 07:20:10;;;;;;;35.55;8.00;;;5.80;99.90;;;;;;7368465;19;20022;-56
2023/01/10 07:22:37;;;;;;;17.88;5.95;;;5.80;99.90;;;;;;7382468;19;20007;-56
2023/01/10 07:25:04;;;;;;;23.48;6.93;;;5.80;99.90;;;;;;7385072;19;20067;-57
2023/01/10 07:27:31;;;;;;;22.27;7.05;;;5.90;99.90;;;;;;7383833;19;20025;-55
2023/01/10 07:29:58;;;;;;;26.27;6.97;;;5.90;99.90;;;;;;7383920;19;20469;-54
2023/01/10 07:32:25;;;;;;;29.55;6.63;;;5.90;99.90;;;;;;7383648;19;20018;-55
2023/01/10 07:34:51;;;;;;;23.17;6.70;;;5.90;99.90;;;;;;7382671;19;20390;-54
2023/01/10 07:37:17;;;;;;;24.35;6.95;;;5.90;99.90;;;;;;7385765;19;20472;-55
2023/01/10 07:39:43;;;;;;;31.52;6.70;;;5.90;99.90;;;;;;7384804;19;20477;-55
2023/01/10 07:42:10;;;;;;;23.10;5.80;;;5.90;99.90;;;;;;7381040;19;20019;-55
2023/01/10 07:44:37;;;;;;;28.02;7.28;;;5.80;99.90;;;;;;7384564;19;20042;-55
2023/01/10 07:47:04;;;;;;;24.98;6.47;;;5.90;99.90;;;;;;7391543;19;20014;-56
2023/01/10 07:49:30;;;;;;;30.08;7.50;;;5.90;99.90;;;;;;7390348;19;20014;-56
2023/01/10 07:51:57;;;;;;;30.45;6.50;;;5.90;99.90;;;;;;7388784;19;20481;-56
2023/01/10 07:54:24;;;;;;;30.92;7.95;;;5.90;99.90;;;;;;7390296;19;20503;-56
2023/01/10 07:56:50;;;;;;;25.65;6.68;;;6.00;99.90;;;;;;7390188;19;20354;-51
2023/01/10 07:59:16;;;;;;;34.17;7.43;;;6.00;99.90;;;;;;7391203;19;20496;-55
2023/01/10 08:01:42;;;;;;;23.13;6.03;;;6.00;99.90;;;;;;7389008;19;20014;-53
2023/01/10 08:04:09;;;;;;;28.55;7.90;;;6.00;99.90;;;;;;7390024;19;20016;-55
2023/01/10 08:06:35;;;;;;;26.25;7.07;;;6.10;99.90;;;;;;7388153;19;20480;-56
2023/01/10 08:09:03;;;;;;;26.00;6.75;;;6.10;99.90;;;;;;7390225;19;20491;-56
2023/01/10 08:11:30;;;;;;;27.73;7.22;;;6.10;99.90;;;;;;7389876;19;20523;-56
2023/01/10 08:13:56;;;;;;;28.23;6.53;;;6.10;99.90;;;;;;7390524;19;20009;-54
2023/01/10 08:16:23;;;;;;;26.73;7.35;;;6.20;99.90;;;;;;7391836;19;20010;-55
2023/01/10 08:18:50;;;;;;;27.85;6.38;;;6.20;99.90;;;;;;7388711;19;20018;-55
2023/01/10 08:21:16;;;;;;;27.70;6.43;;;6.20;99.90;;;;;;7387969;19;20036;-55
2023/01/10 08:23:42;;;;;;;28.20;7.00;;;6.20;99.90;;;;;;7388859;19;20041;-55
2023/01/10 08:26:08;;;;;;;25.65;6.72;;;6.20;99.90;;;;;;7390329;19;20497;-55
2023/01/10 08:28:34;;;;;;;28.58;6.53;;;6.30;99.90;;;;;;7388167;19;20478;-56
2023/01/10 08:31:05;;;;;;;28.13;6.78;;;6.20;99.90;;;;;;7388014;19;20109;-55
2023/01/10 08:33:32;;;;;;;22.57;5.97;;;6.20;99.90;;;;;;7388174;19;20484;-55
2023/01/10 08:35:58;;;;;;;28.77;7.03;;;6.10;99.90;;;;;;7389139;19;20021;-55
2023/01/10 08:38:25;;;;;;;22.13;5.93;;;6.20;99.90;;;;;;7387476;19;20505;-55
2023/01/10 08:40:51;;;;;;;29.60;6.68;;;6.30;99.90;;;;;;7389406;19;20029;-57
2023/01/10 08:43:17;;;;;;;30.88;6.25;;;6.30;99.90;;;;;;7361635;19;20018;-58
2023/01/10 08:45:43;;;;;;;25.33;6.28;;;6.40;99.90;;;;;;7386109;19;20019;-55
2023/01/10 08:48:11;;;;;;;25.13;6.18;;;6.50;99.90;;;;;;7388592;19;20011;-55
2023/01/10 08:50:38;;;;;;;24.65;6.47;;;6.50;99.90;;;;;;7387943;19;20018;-56
2023/01/10 08:53:04;;;;;;;24.48;6.20;;;6.50;99.90;;;;;;7384078;19;20049;-58
2023/01/10 08:55:34;;;;;;;22.02;5.97;;;6.50;99.90;;;;;;7361953;19;20037;-58
2023/01/10 08:58:01;;;;;;;28.52;6.95;;;6.50;99.90;;;;;;7382137;19;20540;-56
2023/01/10 09:00:28;;;;;;;23.35;5.40;;;6.40;99.90;;;;;;7387205;19;20023;-56
2023/01/10 09:02:56;;;;;;;24.70;6.30;;;6.40;99.90;;;;;;7372607;19;20022;-58
2023/01/10 09:05:24;;;;;;;24.25;5.40;;;6.40;99.90;;;;;;7362289;19;20524;-58
2023/01/10 09:08:00;;;;;;;31.15;7.00;;;6.30;99.90;;;;;;7386985;19;20014;-56
2023/01/10 09:10:28;;;;;;;26.58;6.70;;;6.30;99.90;;;;;;7386723;19;20480;-54
2023/01/10 09:12:58;;;;;;;26.40;6.28;;;6.30;99.90;;;;;;7389880;19;20014;-55
2023/01/10 09:15:29;;;;;;;27.83;6.50;;;6.40;99.90;;;;;;7371797;19;20018;-57
2023/01/10 09:17:57;;;;;;;26.20;6.68;;;6.40;99.90;;;;;;7366579;19;20082;-57
2023/01/10 09:20:25;;;;;;;27.63;6.65;;;6.50;99.90;;;;;;7386905;19;20469;-54
2023/01/10 09:22:51;;;;;;;28.55;6.50;;;6.50;99.90;;;;;;7385932;19;20034;-55
2023/01/10 09:25:17;;;;;;;24.38;5.57;;;6.50;99.90;;;;;;7367186;19;20348;-57
2023/01/10 09:27:44;;;;;;;29.13;6.50;;;6.70;99.90;;;;;;7367682;19;20029;-56
2023/01/10 09:30:11;;;;;;;25.02;6.15;;;6.70;99.90;;;;;;7363709;19;20395;-57
2023/01/10 09:32:38;;;;;;;19.83;6.30;;;6.80;99.90;;;;;;7368003;19;20381;-57
2023/01/10 09:35:04;;;;;;;22.40;6.18;;;6.90;99.90;;;;;;7364736;19;20025;-57
2023/01/10 09:37:32;;;;;;;26.65;5.97;;;6.90;99.90;;;;;;7363401;19;20045;-57
2023/01/10 09:39:59;;;;;;;26.55;5.38;;;7.00;99.90;;;;;;7365218;19;20074;-57
2023/01/10 09:42:40;;;;;;;29.23;6.70;;;7.10;99.90;;;;;;7382264;19;20017;-54
2023/01/10 09:45:06;;;;;;;26.67;7.25;;;7.20;99.90;;;;;;7388460;19;20057;-55
2023/01/10 09:47:38;;;;;;;25.35;6.75;;;7.30;99.90;;;;;;7389049;19;20051;-56
2023/01/10 09:50:17;;;;;;;22.48;6.80;;;7.40;99.90;;;;;;7385908;19;20014;-54
2023/01/10 09:53:11;;;;;;;24.52;6.45;;;7.40;99.90;;;;;;7388006;19;20026;-55
2023/01/10 09:55:39;;;;;;;20.48;5.95;;;7.40;99.90;;;;;;7388696;19;20022;-55
2023/01/10 09:58:17;;;;;;;20.75;5.80;;;7.40;99.90;;;;;;7388638;19;20038;-55
2023/01/10 10:00:51;;;;;;;28.35;6.90;;;7.30;99.90;;;;;;7386263;19;20010;-57
2023/01/10 10:03:32;;;;;;;25.52;7.47;;;7.30;99.90;;;;;;7385099;19;20026;-55
2023/01/10 10:05:59;;;;;;;27.67;6.63;;;7.30;99.90;;;;;;7387359;19;20018;-55
2023/01/10 10:08:25;;;;;;;30.50;6.60;;;7.30;99.90;;;;;;7383610;19;20022;-55
2023/01/10 10:11:14;;;;;;;24.13;6.10;;;7.30;99.90;;;;;;7386502;19;20014;-55
2023/01/10 10:13:48;;;;;;;28.20;8.63;;;7.30;99.90;;;;;;7386908;19;20055;-56
2023/01/10 10:16:33;;;;;;;25.05;7.35;;;7.30;99.90;;;;;;7384769;19;20019;-56
2023/01/10 10:19:28;;;;;;;25.27;8.10;;;7.30;99.90;;;;;;7384012;19;20657;-56
2023/01/10 10:22:29;;;;;;;26.95;8.73;;;7.30;99.90;;;;;;7362962;19;20017;-57
2023/01/10 10:25:12;;;;;;;30.55;9.77;;;7.30;99.90;;;;;;7375246;19;20014;-54
2023/01/10 10:27:54;;;;;;;;;;;7.40;99.90;;;;;;7366328;19;20435;-57
2023/01/10 10:30:24;;;;;;;31.00;11.50;;;7.40;99.90;;;;;;7365108;19;19929;-57
2023/01/10 10:33:09;;;;;;;30.65;11.07;;;7.30;99.90;;;;;;7380184;19;20023;-55
2023/01/10 10:35:37;;;;;;;25.48;10.73;;;7.30;99.90;;;;;;7381367;19;20054;-56
2023/01/10 10:38:39;;;;;;;25.77;11.48;;;7.40;99.90;;;;;;7373054;19;20485;-57
2023/01/10 10:41:16;;;;;;;29.90;10.88;;;7.40;99.90;;;;;;7361435;19;20026;-57
2023/01/10 10:43:45;;;;;;;32.05;12.02;;;7.40;99.90;;;;;;7360386;19;20882;-57
2023/01/10 10:46:15;;;;;;;32.92;12.20;;;7.40;99.90;;;;;;7377431;19;20018;-56
2023/01/10 10:48:52;;;;;;;27.90;12.30;;;7.40;99.90;;;;;;7362650;19;20476;-57
2023/01/10 10:51:26;;;;;;;27.23;11.07;;;7.40;99.90;;;;;;7373638;19;20028;-57
2023/01/10 10:53:55;;;;;;;27.80;11.07;;;7.40;99.90;;;;;;7362279;19;20047;-57
2023/01/10 10:56:25;;;;;;;29.77;10.82;;;7.40;99.90;;;;;;7376334;19;20074;-53
2023/01/10 10:58:54;;;;;;;29.65;10.70;;;7.50;99.90;;;;;;7385405;19;20853;-55
2023/01/10 11:01:21;;;;;;;23.98;10.18;;;7.40;99.90;;;;;;7383671;19;20019;-55
2023/01/10 11:03:56;;;;;;;28.25;10.15;;;7.50;99.90;;;;;;7383186;19;20037;-55
2023/01/10 11:06:24;;;;;;;28.02;9.93;;;7.50;99.90;;;;;;7361973;19;20029;-58
2023/01/10 11:08:57;;;;;;;24.52;10.32;;;7.60;99.90;;;;;;7374184;19;20030;-54
2023/01/10 11:11:34;;;;;;;28.17;10.15;;;7.60;99.90;;;;;;7376708;19;20033;-57
2023/01/10 11:14:06;;;;;;;24.73;9.05;;;7.50;99.90;;;;;;7382047;19;20018;-57
2023/01/10 11:16:39;;;;;;;23.60;8.85;;;7.60;99.90;;;;;;7380349;19;20015;-58
2023/01/10 11:19:20;;;;;;;26.85;9.50;;;7.50;99.90;;;;;;7372961;19;20453;-58
2023/01/10 11:21:53;;;;;;;28.63;8.43;;;7.50;99.90;;;;;;7370730;19;20039;-57
2023/01/10 11:24:34;;;;;;;23.70;8.75;;;7.50;99.90;;;;;;7375111;19;20025;-58
2023/01/10 11:27:15;;;;;;;27.92;8.20;;;7.50;99.90;;;;;;7360906;19;20029;-58
2023/01/10 11:29:50;;;;;;;24.73;8.63;;;7.50;99.90;;;;;;7361485;19;20485;-58
2023/01/10 11:32:19;;;;;;;22.70;8.20;;;7.60;99.90;;;;;;7357274;19;20449;-58
2023/01/10 11:34:58;;;;;;;26.73;7.88;;;7.60;99.90;;;;;;7364487;19;20032;-58
2023/01/10 11:37:28;;;;;;;22.98;8.30;;;7.60;99.90;;;;;;7368581;19;20035;-58
2023/01/10 11:40:14;;;;;;;22.67;7.82;;;7.60;99.90;;;;;;7368381;19;20393;-56
2023/01/10 11:42:40;;;;;;;23.95;7.55;;;7.60;99.90;;;;;;7383981;19;20015;-57
2023/01/10 11:45:25;;;;;;;20.58;7.82;;;7.60;99.90;;;;;;7385365;19;20010;-57
2023/01/10 11:48:12;;;;;;;26.95;7.25;;;7.60;99.90;;;;;;7386656;19;20397;-57
2023/01/10 11:50:43;;;;;;;29.20;7.63;;;7.60;99.90;;;;;;7382330;19;20364;-56
2023/01/10 11:53:39;;;;;;;31.70;7.80;;;7.50;99.90;;;;;;7379315;19;20379;-58
2023/01/10 11:56:11;;;;;;;24.50;7.10;;;7.50;99.90;;;;;;7361969;19;20639;-58
2023/01/10 11:58:39;;;;;;;26.00;8.43;;;7.50;99.90;;;;;;7369585;19;20032;-57
2023/01/10 12:01:05;;;;;;;23.00;7.47;;;7.50;99.90;;;;;;7383816;19;20010;-56
2023/01/10 12:03:36;;;;;;;23.55;7.85;;;7.50;99.90;;;;;;7382478;19;20047;-57
2023/01/10 12:06:16;;;;;;;29.10;7.25;;;7.50;99.90;;;;;;7374925;19;20138;-58
2023/01/10 12:08:45;;;;;;;26.02;7.20;;;7.60;99.90;;;;;;7369931;19;20354;-56
2023/01/10 12:11:17;;;;;;;24.35;7.40;;;7.50;99.90;;;;;;7384603;19;20018;-57
2023/01/10 12:13:48;;;;;;;;;;;7.50;99.90;;;;;;7387391;19;20023;-57
2023/01/10 12:16:28;;;;;;;21.67;6.55;;;7.40;99.90;;;;;;7383666;19;19927;-56
2023/01/10 12:19:00;;;;;;;19.77;5.40;;;7.40;99.90;;;;;;7384487;19;20014;-56
2023/01/10 12:21:38;;;;;;;;;;;7.40;99.90;;;;;;7384802;19;20015;-57
2023/01/10 12:24:23;;;;;;;22.70;5.80;;;7.30;99.90;;;;;;7379216;19;20389;-58
2023/01/10 12:26:52;;;;;;;19.23;5.18;;;7.30;99.90;;;;;;7362417;19;20416;-58
2023/01/10 12:29:27;;;;;;;27.27;6.10;;;7.30;99.90;;;;;;7357898;19;20409;-58
2023/01/10 12:31:57;;;;;;;27.05;6.53;;;7.30;99.90;;;;;;7360545;19;20014;-58
2023/01/10 12:34:32;;;;;;;21.55;7.05;;;7.30;99.90;;;;;;7365791;19;20025;-58
2023/01/10 12:37:10;;;;;;;25.52;7.22;;;7.30;99.90;;;;;;7366590;19;20537;-58
2023/01/10 12:39:44;;;;;;;22.80;6.60;;;7.30;99.90;;;;;;7366534;19;20513;-58
2023/01/10 12:45:33;;;;;;;21.65;6.20;;;7.20;99.90;;;;;;7366292;19;20022;-58
2023/01/10 12:48:08;;;;;;;24.60;8.02;;;7.20;99.90;;;;;;7389761;19;20014;-57
2023/01/10 12:50:40;;;;;;;22.77;7.07;;;7.20;99.90;;;;;;7390759;19;20501;-57
2023/01/10 12:53:27;;;;;;;25.92;7.35;;;7.20;99.90;;;;;;7390221;19;20015;-57
2023/01/10 12:55:57;;;;;;;29.92;8.38;;;7.20;99.90;;;;;;7378456;19;20583;-58
2023/01/10 12:58:37;;;;;;;17.48;6.80;;;7.10;99.90;;;;;;7378502;19;20018;-56
2023/01/10 13:01:05;;;;;;;24.75;7.38;;;7.10;99.90;;;;;;7391038;19;20029;-57
2023/01/10 13:03:35;;;;;;;23.15;7.03;;;7.10;99.90;;;;;;7388716;19;20504;-57
2023/01/10 13:06:03;;;;;;;28.02;7.63;;;7.10;99.90;;;;;;7386488;19;20460;-56
2023/01/10 13:08:33;;;;;;;24.80;7.90;;;7.10;99.90;;;;;;7391398;19;20014;-56
2023/01/10 13:11:01;;;;;;;23.35;6.90;;;7.10;99.90;;;;;;7369665;19;20019;-58
2023/01/10 13:13:34;;;;;;;27.15;8.13;;;7.10;99.90;;;;;;7366091;19;20018;-58
2023/01/10 13:16:19;;;;;;;24.92;8.60;;;7.00;99.90;;;;;;7365448;19;20025;-56
2023/01/10 13:19:04;;;;;;;32.00;7.75;;;7.00;99.90;;;;;;7369075;19;20505;-58
2023/01/10 13:21:32;;;;;;;27.40;6.30;;;7.00;99.90;;;;;;7368154;19;20038;-57